Weather History for Oxford, MS

Change the Weather History Date:

Wednesday, May 15, 2013

  Actual Average Record
Temperature  
Mean Temperature 70 °F -  
Max Temperature 82 °F 80 °F 92 °F (1988)
Min Temperature 59 °F 54 °F 41 °F (1978)
Cooling Degree Days 6    
Growing Degree Days 20 (Base 50)    
Moisture  
Dew Point 53 °F    
Average Humidity 53    
Maximum Humidity 77    
Minimum Humidity 32    
Precipitation  
Precipitation 0.00 in - - ()
Sea Level Pressure  
Sea Level Pressure 30.10 in    
Wind  
Wind Speed 6 mph (SW)    
Max Wind Speed 15 mph    
Max Gust Speed 24 mph    
Visibility 9 miles    
Events      
Averages and records for this station are not official NWS values.
T = Trace of Precipitation, MM = Missing Value Source: NWS Daily Summary

Daily Weather History Graph

Daily Weather History Graph

Search for Another Location

Airport:

Trip Planner

Search our weather history database for the weather conditions in past years. The results will help you decide how hot, cold, wet, or windy it might be!

Date:

Astronomy

May. 15, 2013 Rise Set
Actual Time 5:55 AM CDT 7:53 PM CDT
Civil Twilight 5:27 AM CDT 8:21 PM CDT
Nautical Twilight 4:54 AM CDT 8:55 PM CDT
Astronomical Twilight 4:18 AM CDT 9:31 PM CDT
Moon 10:29 AM CDT (5/15) No Moon Set
Length of Visible Light 14h 53m
Length of Day
13h 58m
Waxing Crescent, 27% of the Moon is Illuminated
May 15
Waxing Crescent
May 17
First Quarter
May 24
Full
May 31
Last Quarter
Jun 8
New

Hourly Weather History & Observations

Time (CDT) Temp. Heat Index Dew Point Humidity Pressure Visibility Wind Dir Wind Speed Gust Speed Precip Events Conditions
12:15 AM 66.2 °F - 51.8 °F 60% 30.12 in 10.0 mi SW 5.8 mph - N/A   Clear
12:35 AM 66.2 °F - 53.6 °F 64% 30.12 in 10.0 mi SW 4.6 mph - N/A   Clear
12:55 AM 64.4 °F - 53.6 °F 68% 30.12 in 10.0 mi SW 4.6 mph - N/A   Clear
1:15 AM 64.4 °F - 53.6 °F 68% 30.12 in 10.0 mi SSW 3.5 mph - N/A   Clear
1:35 AM 64.4 °F - 53.6 °F 68% 30.12 in 10.0 mi SW 4.6 mph - N/A   Clear
1:55 AM 64.4 °F - 53.6 °F 68% 30.12 in 10.0 mi SSW 4.6 mph - N/A   Clear
2:15 AM 64.4 °F - 53.6 °F 68% 30.12 in 10.0 mi SW 4.6 mph - N/A   Clear
2:35 AM 64.4 °F - 53.6 °F 68% 30.12 in 10.0 mi SW 6.9 mph - N/A   Clear
2:55 AM 64.4 °F - 53.6 °F 68% 30.12 in 9.0 mi SW 3.5 mph - N/A   Clear
3:15 AM 62.6 °F - 53.6 °F 72% 30.12 in 10.0 mi SW 4.6 mph - N/A   Clear
3:35 AM 62.6 °F - 53.6 °F 72% 30.12 in 10.0 mi SW 4.6 mph - N/A   Clear
3:55 AM 62.6 °F - 53.6 °F 72% 30.13 in 10.0 mi WSW 3.5 mph - N/A   Clear
4:15 AM 62.6 °F - 53.6 °F 72% 30.13 in 10.0 mi Calm Calm - N/A   Clear
4:35 AM 62.6 °F - 53.6 °F 72% 30.13 in 10.0 mi Calm Calm - N/A   Clear
4:55 AM 60.8 °F - 53.6 °F 77% 30.13 in 10.0 mi SW 4.6 mph - N/A   Clear
5:15 AM 62.6 °F - 51.8 °F 68% 30.13 in 10.0 mi SW 4.6 mph - N/A   Clear
5:35 AM 62.6 °F - 51.8 °F 68% 30.14 in 10.0 mi SW 4.6 mph - N/A   Clear
5:55 AM 62.6 °F - 50.0 °F 63% 30.14 in 9.0 mi SW 4.6 mph - N/A   Clear
6:15 AM 60.8 °F - 50.0 °F 68% 30.14 in 8.0 mi SW 3.5 mph - N/A   Clear
6:35 AM 59.0 °F - 51.8 °F 77% 30.14 in 8.0 mi SW 3.5 mph - N/A   Clear
6:55 AM 62.6 °F - 51.8 °F 68% 30.15 in 8.0 mi SW 5.8 mph - N/A   Clear
7:35 AM 64.4 °F - 51.8 °F 64% 30.16 in 8.0 mi WSW 8.1 mph - N/A   Clear
7:55 AM 66.2 °F - 50.0 °F 56% 30.16 in 8.0 mi WSW 9.2 mph - N/A   Clear
8:15 AM 68.0 °F - 50.0 °F 52% 30.17 in 7.0 mi WSW 8.1 mph - N/A   Clear
8:35 AM 68.0 °F - 50.0 °F 52% 30.17 in 8.0 mi WSW 8.1 mph - N/A   Clear
8:55 AM 69.8 °F - 48.2 °F 46% 30.17 in 8.0 mi WSW 9.2 mph - N/A   Clear
9:15 AM 71.6 °F - 48.2 °F 43% 30.17 in 8.0 mi WSW 6.9 mph - N/A   Clear
9:35 AM 73.4 °F - 48.2 °F 41% 30.17 in 8.0 mi West 8.1 mph - N/A   Clear
9:55 AM 73.4 °F - 46.4 °F 38% 30.17 in 8.0 mi West 12.7 mph 16.1 mph N/A   Clear
10:15 AM 73.4 °F - 48.2 °F 41% 30.17 in 8.0 mi West 13.8 mph 19.6 mph N/A   Clear
10:35 AM 75.2 °F - 50.0 °F 41% 30.17 in 8.0 mi West 8.1 mph - N/A   Clear
10:55 AM 75.2 °F - 50.0 °F 41% 30.16 in 9.0 mi WSW 9.2 mph - N/A   Clear
11:15 AM 77.0 °F - 51.8 °F 41% 30.16 in 9.0 mi West 6.9 mph - N/A   Clear
11:55 AM 77.0 °F - 50.0 °F 39% 30.15 in 8.0 mi West 6.9 mph - N/A   Clear
12:15 PM 77.0 °F - 51.8 °F 41% 30.14 in 9.0 mi SW 11.5 mph 19.6 mph N/A   Clear
12:35 PM 77.0 °F - 51.8 °F 41% 30.13 in 8.0 mi SW 11.5 mph 19.6 mph N/A   Clear
12:55 PM 80.6 °F - 51.8 °F 37% 30.13 in 9.0 mi SW 6.9 mph - N/A   Clear
1:15 PM 80.6 °F - 50.0 °F 34% 30.12 in 9.0 mi SW 10.4 mph 20.7 mph N/A   Clear
1:35 PM 80.6 °F 80.3 °F 53.6 °F 39% 30.11 in 8.0 mi WSW 9.2 mph - N/A   Clear
2:15 PM 82.4 °F - 50.0 °F 32% 30.10 in 9.0 mi SSW 8.1 mph 24.2 mph N/A   Clear
2:35 PM 82.4 °F - 51.8 °F 35% 30.09 in 8.0 mi WSW 6.9 mph 19.6 mph N/A   Clear
2:55 PM 82.4 °F - 50.0 °F 32% 30.08 in 9.0 mi WSW 9.2 mph 21.9 mph N/A   Clear
3:15 PM 82.4 °F - 51.8 °F 35% 30.07 in 8.0 mi WSW 13.8 mph 18.4 mph N/A   Clear
3:35 PM 82.4 °F - 51.8 °F 35% 30.06 in 8.0 mi SW 9.2 mph 17.3 mph N/A   Clear
3:55 PM 82.4 °F - 51.8 °F 35% 30.05 in 8.0 mi WSW 10.4 mph 23.0 mph N/A   Clear
4:15 PM 80.6 °F - 51.8 °F 37% 30.05 in 9.0 mi SW 12.7 mph 17.3 mph N/A   Clear
4:35 PM 80.6 °F 80.3 °F 53.6 °F 39% 30.04 in 9.0 mi SSW 12.7 mph 19.6 mph N/A   Clear
4:55 PM 80.6 °F 80.3 °F 53.6 °F 39% 30.04 in 9.0 mi SW 15.0 mph 20.7 mph N/A   Clear
5:15 PM 80.6 °F 80.3 °F 53.6 °F 39% 30.04 in 9.0 mi SW 11.5 mph 19.6 mph N/A   Clear
5:35 PM 80.6 °F 80.3 °F 53.6 °F 39% 30.03 in 8.0 mi SW 9.2 mph - N/A   Clear
5:55 PM 80.6 °F 80.3 °F 53.6 °F 39% 30.03 in 9.0 mi SW 9.2 mph - N/A   Clear
6:15 PM 77.0 °F - 53.6 °F 44% 30.03 in 9.0 mi SW 11.5 mph 18.4 mph N/A   Clear
6:35 PM 77.0 °F - 53.6 °F 44% 30.02 in 9.0 mi SW 6.9 mph - N/A   Clear
6:55 PM 75.2 °F - 53.6 °F 47% 30.02 in 9.0 mi SSW 5.8 mph - N/A   Clear
7:15 PM 75.2 °F - 53.6 °F 47% 30.02 in 9.0 mi SSW 4.6 mph - N/A   Clear
7:35 PM 75.2 °F - 53.6 °F 47% 30.02 in 8.0 mi SSW 4.6 mph - N/A   Clear
7:55 PM 73.4 °F - 53.6 °F 50% 30.02 in 9.0 mi SSW 4.6 mph - N/A   Clear
8:15 PM 73.4 °F - 53.6 °F 50% 30.02 in 10.0 mi SSW 4.6 mph - N/A   Clear
8:35 PM 73.4 °F - 55.4 °F 53% 30.03 in 10.0 mi SSW 4.6 mph - N/A   Clear
8:55 PM 73.4 °F - 55.4 °F 53% 30.03 in 10.0 mi SSW 3.5 mph - N/A   Clear
9:15 PM 71.6 °F - 55.4 °F 57% 30.03 in 10.0 mi SSW 3.5 mph - N/A   Clear
9:35 PM 71.6 °F - 55.4 °F 57% 30.03 in 10.0 mi Calm Calm - N/A   Clear
9:55 PM 71.6 °F - 55.4 °F 57% 30.03 in 10.0 mi Calm Calm - N/A   Clear
10:15 PM 71.6 °F - 55.4 °F 57% 30.03 in 10.0 mi SSW 5.8 mph - N/A   Clear
10:35 PM 71.6 °F - 55.4 °F 57% 30.03 in 10.0 mi SSW 4.6 mph - N/A   Clear
10:55 PM 71.6 °F - 55.4 °F 57% 30.03 in 9.0 mi SSW 4.6 mph - N/A   Clear
11:15 PM 71.6 °F - 57.2 °F 60% 30.03 in 10.0 mi SSW 3.5 mph - N/A   Clear
11:35 PM 71.6 °F - 57.2 °F 60% 30.03 in 9.0 mi SW 5.8 mph - N/A   Clear
11:55 PM 71.6 °F - 57.2 °F 60% 30.03 in 8.0 mi SW 5.8 mph - N/A   Clear